Teuge International Airport

EHTE · Gelderland, 荷兰

罗盘
风向 的 风向 240° Teuge International Airport 8/26
风: 10 kt, 3 beaufort

9 kt

4 kt
改变
0 1.000 2.000 3.000 4.000 5.000
FEW 3.800 ft
METAR EDLV 060320Z 24010KT 9999 FEW038 12/09 Q1024

METAR Teuge International Airport - EHTE/TGE

Teuge International Airport是Deventer,荷兰中的中型机场。 该机场有一条跑道: 8/26. 该领域的国际民航组织标志是EHTE 它的国际航空运输协会代码是TGE.

这份报告是针对2022年10月6日 05:20, 当地时间在Weeze Airport进行的。

机场观察

风向为240°,速度为10 kt。

可见度为10 km 或者更多。

有几云在3.800 ft的高度。 没有观察到天花板。

温度和风寒是12 °C。 露点为9 °C,相对湿度为82%。 海平面上的气压为1024 hPa (QNH)。

白天

今天,太阳从07:45升起,在19:02降落。 这适用于Teuge International Airport,世界夏令时可能有所不同。 当地时间与世界标准时间之间的时差为+2 小时。 夏令时目前正在进行中。

公司介绍

在这个机场,你可以找到飞行学校。 本场上唯一已知的公司是Vliegles.nl。

体会

在这个机场有飞行课程。 你可以在没有任何经验的情况下预订飞行课程。 在Teuge International Airport预订最多的飞行课程类型是Cessna flying lesson。 这些课程的价格从€ 149开始。 在这里阅读更多关于Cessna flying lesson的信息。你也可以在这个网站上进行预订。

跑道

Id 标题 侧风 逆风 侧风 %
8/26 084°-264° 4 kt 9 kt 41 %

逆风成分最大的方向会被突出显示,并用于横风计算。 这并不一定意味着这个方向在使用。

乌云

3.800 ft FEW 几云

温度 & 天气

温度 12 °C
露点 9 °C
相对湿度 82%
Kp-index 1 (0-9)

白天

日出
07:44 (2h 11m)
中午
13:23
日落
19:02

小工具

你想在你的网站上有一个关于Teuge International Airport的当前航空天气(METAR)的小部件吗?

</> 显示HTML代码

我们和第三方通过cookies跟踪您在我们网站上的上网行为。如果您继续,我们认为您同意我们的cookie政策。 了解更多